Time;durP1;ratioP1;P1;durP2;ratioP2;P2;SDS_P1;SDS_P2;PMS_P1;PMS_P2;Temp;Humidity;BMP_temperature;BMP_pressure;BME280_temperature;BME280_humidity;BME280_pressure;Samples;Min_cycle;Max_cycle;Signal;HPM_P1;HPM_P2
2023/04/30 00:02:17;;;;;;;11.63;5.90;;;;;;;12.61;83.15;64275.19;5050421;28;20244;-58
2023/04/30 00:04:42;;;;;;;9.82;5.80;;;;;;;12.60;84.21;64277.16;5050452;28;20699;-58
2023/04/30 00:07:08;;;;;;;8.40;5.82;;;;;;;12.59;84.21;64273.00;5050434;28;20268;-57
2023/04/30 00:09:33;;;;;;;8.70;5.70;;;;;;;12.62;84.71;64276.31;5050356;28;20718;-60
2023/04/30 00:11:59;;;;;;;8.02;5.40;;;;;;;12.62;82.75;64276.31;5050341;28;20661;-61
2023/04/30 00:14:24;;;;;;;8.82;5.88;;;;;;;12.61;84.82;64278.28;5050649;28;20225;-62
2023/04/30 00:16:50;;;;;;;10.00;5.88;;;;;;;12.54;82.98;64270.59;5050505;28;20563;-60
2023/04/30 00:19:15;;;;;;;9.13;6.07;;;;;;;12.52;83.77;64265.34;5050599;28;20213;-57
2023/04/30 00:21:41;;;;;;;8.45;5.88;;;;;;;12.52;83.27;64263.34;5050354;28;20181;-59
2023/04/30 00:24:06;;;;;;;10.77;5.93;;;;;;;12.54;82.56;64268.06;5050406;28;20721;-58
2023/04/30 00:26:32;;;;;;;11.85;6.25;;;;;;;12.46;82.09;64261.28;5050272;28;20209;-57
2023/04/30 00:28:57;;;;;;;12.48;6.97;;;;;;;12.44;81.18;64256.56;5050254;28;20209;-57
2023/04/30 00:31:22;;;;;;;9.37;6.10;;;;;;;12.32;79.93;64243.94;5050181;28;20269;-58
2023/04/30 00:33:48;;;;;;;10.48;5.68;;;;;;;12.28;79.05;64241.53;5050445;28;20221;-58
2023/04/30 00:36:13;;;;;;;9.13;5.38;;;;;;;12.17;80.03;64229.47;5032224;28;20194;-61
2023/04/30 00:38:39;;;;;;;9.30;5.88;;;;;;;12.14;82.56;64226.19;5050411;28;20245;-60
2023/04/30 00:41:04;;;;;;;7.80;5.50;;;;;;;12.07;80.36;64216.53;5052614;28;20193;-62
2023/04/30 00:43:30;;;;;;;8.67;5.97;;;;;;;12.19;82.01;64229.13;5053580;28;20674;-60
2023/04/30 00:45:57;;;;;;;7.87;5.73;;;;;;;12.14;83.65;64226.19;5053482;28;20188;-59
2023/04/30 00:48:23;;;;;;;7.00;5.80;;;;;;;12.12;85.25;64221.47;5053398;28;20586;-58
2023/04/30 00:50:48;;;;;;;11.40;6.03;;;;;;;12.09;84.64;64220.72;5053279;28;20192;-61
2023/04/30 00:53:14;;;;;;;10.20;5.87;;;;;;;11.96;85.56;64204.47;5035289;28;20221;-58
2023/04/30 00:55:40;;;;;;;8.68;5.57;;;;;;;11.94;85.79;64204.81;5035665;28;20195;-58
2023/04/30 00:58:09;;;;;;;10.13;6.20;;;;;;;12.01;84.93;64209.97;5053301;28;20213;-57
2023/04/30 01:00:35;;;;;;;8.45;5.63;;;;;;;12.02;83.54;64213.56;5053239;28;20251;-58
2023/04/30 01:03:01;;;;;;;7.32;5.70;;;;;;;12.01;83.27;64206.88;5035073;28;20692;-57
2023/04/30 01:05:26;;;;;;;9.40;5.72;;;;;;;12.04;83.68;64212.72;5053093;28;20370;-58
2023/04/30 01:07:54;;;;;;;9.83;6.10;;;;;;;11.90;84.68;64197.91;5053008;28;20228;-58
2023/04/30 01:10:24;;;;;;;9.73;6.07;;;;;;;11.94;84.71;64201.75;5053114;28;20197;-61
2023/04/30 01:13:08;;;;;;;8.50;6.00;;;;;;;11.97;84.70;64205.03;5052930;28;20276;-58
2023/04/30 01:15:41;;;;;;;13.60;6.45;;;;;;;11.90;84.81;64197.38;5035104;28;20250;-57
2023/04/30 01:18:37;;;;;;;10.63;6.60;;;;;;;11.91;84.74;64204.06;5052918;28;20218;-57
2023/04/30 01:21:04;;;;;;;11.50;6.10;;;;;;;11.94;84.50;64204.28;5053134;28;20216;-58
2023/04/30 01:24:07;;;;;;;11.60;6.90;;;;;;;11.76;84.57;64185.06;5053001;28;20308;-57
2023/04/30 01:26:54;;;;;;;12.32;6.40;;;;;;;11.59;85.60;64164.47;5052926;28;20193;-62
2023/04/30 01:29:21;;;;;;;11.30;7.18;;;;;;;11.54;86.46;64161.50;5052857;28;20278;-59
2023/04/30 01:31:46;;;;;;;10.77;6.70;;;;;;;11.53;86.17;64155.34;5052883;28;20274;-60
2023/04/30 01:34:12;;;;;;;14.27;7.63;;;;;;;11.52;85.74;64159.31;5034715;28;20683;-61
2023/04/30 01:37:00;;;;;;;11.93;7.73;;;;;;;11.42;86.61;64145.84;5052636;28;20190;-60
2023/04/30 01:40:00;;;;;;;9.47;5.97;;;;;;;11.53;81.83;64157.34;5052599;28;20679;-62
2023/04/30 01:42:44;;;;;;;10.95;6.97;;;;;;;11.30;85.83;64132.69;5019454;28;20225;-61
2023/04/30 01:45:45;;;;;;;9.70;6.23;;;;;;;11.25;85.73;64129.19;5052694;28;20584;-58
2023/04/30 01:48:39;;;;;;;10.23;6.03;;;;;;;11.27;87.18;64131.91;5052627;28;20208;-60
2023/04/30 01:51:16;;;;;;;8.90;5.93;;;;;;;11.30;86.70;64135.22;5051998;28;20276;-57
2023/04/30 01:53:45;;;;;;;8.80;6.20;;;;;;;11.41;85.99;64147.25;5052674;28;20265;-57
2023/04/30 01:56:18;;;;;;;16.80;6.73;;;;;;;11.31;86.62;64135.75;5052162;28;20608;-57
2023/04/30 01:58:46;;;;;;;12.83;6.43;;;;;;;11.27;85.91;64129.41;5052447;28;20237;-57
2023/04/30 02:01:32;;;;;;;10.63;6.00;;;;;;;11.19;87.42;64118.09;5052188;28;20199;-60
2023/04/30 02:03:58;;;;;;;11.17;5.93;;;;;;;11.30;87.18;64134.66;5051992;28;20221;-57
2023/04/30 02:06:27;;;;;;;11.45;6.15;;;;;;;11.42;85.60;64150.31;5052237;28;20250;-61
2023/04/30 02:08:54;;;;;;;9.37;5.70;;;;;;;11.32;85.40;64134.88;5052429;28;20206;-59
2023/04/30 02:11:20;;;;;;;10.57;6.10;;;;;;;11.41;85.05;64146.72;5034249;28;20185;-59
2023/04/30 02:13:45;;;;;;;10.00;5.67;;;;;;;11.34;85.40;64137.06;5052307;28;20214;-60
2023/04/30 02:16:11;;;;;;;9.63;5.53;;;;;;;11.28;86.31;64135.53;5052019;28;20711;-60
2023/04/30 02:18:36;;;;;;;9.37;5.67;;;;;;;11.31;86.47;64136.28;5052101;28;20198;-60
2023/04/30 02:21:02;;;;;;;8.63;5.63;;;;;;;11.45;85.08;64146.59;5052033;28;20239;-57
2023/04/30 02:23:27;;;;;;;11.75;5.93;;;;;;;11.51;84.46;64155.69;5051774;28;20314;-61
2023/04/30 02:25:53;;;;;;;7.67;5.53;;;;;;;11.32;85.47;64136.84;5051835;28;20275;-60
2023/04/30 02:28:18;;;;;;;10.93;5.77;;;;;;;11.21;87.36;64125.34;5051896;28;20617;-57
2023/04/30 02:30:43;;;;;;;8.30;5.43;;;;;;;11.32;84.88;64134.88;5051794;28;20186;-58
2023/04/30 02:33:11;;;;;;;8.77;5.67;;;;;;;11.38;84.25;64138.38;5033896;28;20776;-58
2023/04/30 02:35:37;;;;;;;8.63;4.93;;;;;;;11.05;86.24;64107.81;5051691;28;20671;-55
2023/04/30 02:38:02;;;;;;;7.97;5.73;;;;;;;11.03;86.89;64105.09;5051755;28;20263;-56
2023/04/30 02:40:28;;;;;;;11.40;6.10;;;;;;;11.03;86.61;64102.59;5034007;28;20193;-58
2023/04/30 02:42:55;;;;;;;10.00;5.93;;;;;;;11.11;85.35;64111.88;5051580;28;20308;-58
2023/04/30 02:45:21;;;;;;;11.37;6.47;;;;;;;11.08;85.74;64110.56;5051392;28;20576;-57
2023/04/30 02:47:47;;;;;;;12.83;6.30;;;;;;;11.21;85.60;64125.34;5051447;28;20251;-57
2023/04/30 02:50:13;;;;;;;11.57;6.00;;;;;;;11.31;85.31;64136.28;5033675;28;20188;-61
2023/04/30 02:52:39;;;;;;;10.17;6.20;;;;;;;11.16;85.56;64114.84;5051388;28;20186;-60
2023/04/30 02:55:05;;;;;;;12.23;6.07;;;;;;;11.01;86.38;64100.91;5051621;28;20182;-58
2023/04/30 02:57:30;;;;;;;10.90;5.93;;;;;;;10.92;87.10;64091.63;5051214;28;20276;-58
2023/04/30 02:59:56;;;;;;;9.53;5.90;;;;;;;11.02;87.46;64104.53;5051441;28;20292;-58
2023/04/30 03:02:22;;;;;;;11.43;5.57;;;;;;;11.02;86.29;64104.53;5050367;28;20591;-57
2023/04/30 03:04:48;;;;;;;8.93;4.83;;;;;;;10.93;83.70;64092.16;5017022;28;20229;-58
2023/04/30 03:07:14;;;;;;;5.53;4.20;;;;;;;10.89;83.35;64090.31;5051217;28;20190;-56
2023/04/30 03:09:39;;;;;;;6.77;3.63;;;;;;;10.84;82.89;64084.84;5051278;28;20218;-58
2023/04/30 03:12:05;;;;;;;8.17;3.63;;;;;;;10.72;81.28;64072.25;5051239;28;20720;-56
2023/04/30 03:14:30;;;;;;;7.90;5.33;;;;;;;10.47;82.43;64044.88;5051483;28;20220;-58
2023/04/30 03:16:56;;;;;;;4.80;3.70;;;;;;;10.53;81.55;64051.44;5051336;28;20173;-56
2023/04/30 03:19:24;;;;;;;3.60;3.17;;;;;;;10.59;80.69;64058.00;5051192;28;20666;-56
2023/04/30 03:21:51;;;;;;;7.33;3.30;;;;;;;10.54;79.68;64052.00;5050850;28;20604;-56
2023/04/30 03:24:16;;;;;;;9.77;5.13;;;;;;;10.53;80.04;64050.88;5051039;28;20692;-56
2023/04/30 03:26:41;;;;;;;4.63;2.90;;;;;;;10.38;79.27;64034.47;5051223;28;20511;-58
2023/04/30 03:29:07;;;;;;;7.27;3.17;;;;;;;10.38;79.88;64029.44;5033003;28;20214;-61
2023/04/30 03:31:32;;;;;;;5.77;3.23;;;;;;;10.43;80.14;64037.44;5051023;28;20276;-58
2023/04/30 03:33:58;;;;;;;5.00;3.17;;;;;;;10.39;80.80;64033.06;5050836;28;20220;-58
2023/04/30 03:36:23;;;;;;;3.73;2.80;;;;;;;10.49;79.63;64044.00;5050894;28;20182;-56
2023/04/30 03:38:49;;;;;;;4.40;3.37;;;;;;;10.49;79.96;64047.06;5051112;28;20610;-58
2023/04/30 03:41:14;;;;;;;6.03;3.40;;;;;;;10.30;80.18;64025.72;5050742;28;20192;-56
2023/04/30 03:43:39;;;;;;;4.20;3.00;;;;;;;10.28;81.71;64019.03;5050885;28;20244;-57
2023/04/30 03:46:05;;;;;;;4.27;3.20;;;;;;;10.45;80.58;64040.16;5050561;28;20193;-57
2023/04/30 03:48:30;;;;;;;7.50;3.00;;;;;;;10.36;80.74;64032.28;5050919;28;20205;-58
2023/04/30 03:50:56;;;;;;;4.37;3.40;;;;;;;10.55;79.73;64053.09;5050981;28;20181;-58
2023/04/30 03:53:21;;;;;;;5.77;3.30;;;;;;;10.52;79.86;64047.84;5050566;28;20299;-57
2023/04/30 03:55:49;;;;;;;3.67;2.87;;;;;;;10.55;79.88;64050.56;5050655;28;20196;-57
2023/04/30 03:58:14;;;;;;;5.73;3.00;;;;;;;10.61;79.56;64062.16;5050632;28;20359;-57
2023/04/30 04:00:40;;;;;;;5.80;3.37;;;;;;;10.58;79.81;64056.94;5050645;28;20268;-58
2023/04/30 04:03:06;;;;;;;6.73;3.33;;;;;;;10.59;80.06;64057.47;5051075;28;20217;-57
2023/04/30 04:05:31;;;;;;;7.40;3.90;;;;;;;10.59;78.85;64054.94;5032792;28;20548;-60
2023/04/30 04:07:57;;;;;;;4.90;3.27;;;;;;;10.52;79.22;64047.84;5050396;28;20210;-63
2023/04/30 04:10:22;;;;;;;7.63;3.60;;;;;;;10.63;80.61;64061.84;5050377;28;20240;-57
2023/04/30 04:12:48;;;;;;;5.53;3.60;;;;;;;10.66;80.71;64065.13;5050495;28;20571;-57
2023/04/30 04:15:13;;;;;;;6.03;4.00;;;;;;;10.81;80.95;64081.53;5053236;28;20235;-57
2023/04/30 04:17:39;;;;;;;6.03;3.50;;;;;;;10.90;81.13;64091.41;5035787;28;20280;-57
2023/04/30 04:20:05;;;;;;;5.73;3.67;;;;;;;11.01;80.58;64102.91;5054064;28;20196;-56
2023/04/30 04:22:30;;;;;;;7.13;4.27;;;;;;;11.13;80.38;64114.06;5053611;28;20219;-56
2023/04/30 04:24:56;;;;;;;4.77;3.67;;;;;;;11.25;80.64;64129.19;5053859;28;20206;-56
2023/04/30 04:27:22;;;;;;;3.70;3.07;;;;;;;11.37;80.43;64140.34;5053850;28;20185;-57
2023/04/30 04:29:48;;;;;;;7.27;3.57;;;;;;;11.52;79.68;64161.84;5053552;28;20212;-61
2023/04/30 04:32:14;;;;;;;8.20;3.50;;;;;;;11.55;80.19;64159.53;5053641;28;20205;-61
2023/04/30 04:34:41;;;;;;;7.07;3.50;;;;;;;11.57;80.19;64159.72;5035863;28;20721;-60
2023/04/30 04:37:07;;;;;;;8.27;3.83;;;;;;;11.59;79.88;64166.44;5053737;28;20182;-59
2023/04/30 04:39:32;;;;;;;6.90;4.20;;;;;;;11.66;79.34;64174.69;5053513;28;20213;-57
2023/04/30 04:41:58;;;;;;;11.90;4.93;;;;;;;11.61;79.83;64166.66;5053497;28;20706;-57
2023/04/30 04:44:23;;;;;;;11.17;5.30;;;;;;;11.75;79.98;64182.03;5035770;28;20225;-61
2023/04/30 04:46:52;;;;;;;9.00;4.80;;;;;;;11.51;80.51;64158.22;5053805;28;20189;-56
2023/04/30 04:49:18;;;;;;;9.47;4.67;;;;;;;11.68;80.63;64173.78;5053278;28;20308;-56
2023/04/30 04:51:43;;;;;;;8.47;5.00;;;;;;;11.76;80.95;64185.06;5053314;28;20273;-60
2023/04/30 04:54:09;;;;;;;8.35;5.97;;;;;;;11.94;80.31;64204.81;5053475;28;20675;-60
2023/04/30 04:56:34;;;;;;;9.17;5.20;;;;;;;11.87;80.45;64197.16;5053481;28;20185;-60
2023/04/30 04:59:00;;;;;;;9.97;6.27;;;;;;;11.89;80.25;64196.81;5053453;28;20241;-59
2023/04/30 05:01:25;;;;;;;10.27;6.70;;;;;;;11.70;82.60;64179.06;5053229;28;20202;-58
2023/04/30 05:03:52;;;;;;;9.67;6.77;;;;;;;11.47;83.58;64153.81;5052979;28;20227;-57
2023/04/30 05:06:17;;;;;;;11.97;7.27;;;;;;;11.25;84.96;64127.19;5053136;28;20194;-57
2023/04/30 05:08:43;;;;;;;9.27;6.90;;;;;;;11.29;85.90;64131.06;5053214;28;20638;-63
2023/04/30 05:11:09;;;;;;;9.63;7.30;;;;;;;11.51;83.85;64158.22;5053242;28;20671;-61
2023/04/30 05:13:34;;;;;;;9.47;6.80;;;;;;;11.66;84.41;64169.63;5053252;28;20209;-60
2023/04/30 05:16:00;;;;;;;13.13;8.20;;;;;;;11.69;83.98;64177.41;5053026;28;20246;-61
2023/04/30 05:18:25;;;;;;;11.87;7.60;;;;;;;11.75;84.70;64181.47;5053171;28;20280;-61
2023/04/30 05:20:50;;;;;;;11.70;7.37;;;;;;;11.85;84.42;64194.41;5053308;28;20200;-58
2023/04/30 05:23:16;;;;;;;10.90;7.27;;;;;;;12.03;84.31;64212.16;5052778;28;20714;-58
2023/04/30 05:25:41;;;;;;;10.53;7.13;;;;;;;12.14;83.81;64223.66;5051866;28;20201;-60
2023/04/30 05:28:07;;;;;;;11.57;7.30;;;;;;;12.19;81.38;64229.69;5052738;28;20221;-59
2023/04/30 05:30:32;;;;;;;8.47;6.83;;;;;;;12.27;81.29;64238.47;5052673;28;20185;-59
2023/04/30 05:32:58;;;;;;;11.67;7.07;;;;;;;12.27;81.23;64235.38;5052811;28;20221;-58
2023/04/30 05:35:23;;;;;;;9.80;6.07;;;;;;;12.14;81.29;64224.22;5052686;28;20193;-59
2023/04/30 05:37:48;;;;;;;9.57;6.30;;;;;;;12.20;82.39;64230.78;5052509;28;20227;-57
2023/04/30 05:40:14;;;;;;;10.60;6.35;;;;;;;12.32;81.34;64246.47;5052608;28;20220;-58
2023/04/30 05:42:42;;;;;;;10.20;7.13;;;;;;;12.41;80.66;64253.81;5052519;28;20209;-57
2023/04/30 05:45:08;;;;;;;12.10;6.57;;;;;;;12.52;80.05;64265.34;5052345;28;20205;-59
2023/04/30 05:47:34;;;;;;;8.33;5.23;;;;;;;12.82;79.17;64298.25;5052549;28;20188;-59
2023/04/30 05:49:59;;;;;;;7.47;5.00;;;;;;;12.97;78.65;64314.69;5052400;28;20197;-61
2023/04/30 05:52:25;;;;;;;12.23;5.73;;;;;;;12.94;76.48;64308.88;5052313;28;20197;-57
2023/04/30 05:54:50;;;;;;;8.57;5.63;;;;;;;12.80;76.54;64295.50;5052469;28;20221;-57
2023/04/30 05:57:16;;;;;;;8.13;5.30;;;;;;;12.78;76.55;64293.31;5052467;28;20240;-57
2023/04/30 05:59:41;;;;;;;6.60;4.88;;;;;;;12.60;77.97;64274.66;5052477;28;20304;-64
2023/04/30 06:02:07;;;;;;;9.20;5.43;;;;;;;12.56;78.90;64270.25;5052289;28;20193;-60
2023/04/30 06:04:32;;;;;;;7.70;4.87;;;;;;;12.63;78.35;64274.88;5052230;28;20761;-59
2023/04/30 06:06:58;;;;;;;8.07;5.30;;;;;;;12.66;78.69;64280.69;5052095;28;20190;-59
2023/04/30 06:09:23;;;;;;;7.60;4.97;;;;;;;12.88;77.67;64304.28;5052025;28;20216;-61
2023/04/30 06:11:50;;;;;;;8.93;5.07;;;;;;;13.08;76.12;64328.75;5052301;28;20185;-58
2023/04/30 06:14:17;;;;;;;7.07;5.37;;;;;;;12.98;76.47;64315.25;5052411;28;20244;-61
2023/04/30 06:16:45;;;;;;;11.73;5.50;;;;;;;13.10;75.49;64328.97;5052032;28;20580;-60
2023/04/30 06:19:11;;;;;;;7.03;4.65;;;;;;;13.14;77.19;64330.84;5052310;28;20224;-58
2023/04/30 06:21:37;;;;;;;7.43;5.45;;;;;;;13.22;77.58;64342.16;5052232;28;20292;-58
2023/04/30 06:24:03;;;;;;;12.15;5.70;;;;;;;13.27;77.43;64350.16;5051979;28;20233;-58
2023/04/30 06:26:28;;;;;;;9.07;6.90;;;;;;;13.41;76.92;64365.00;5051944;28;20193;-61
2023/04/30 06:28:53;;;;;;;12.60;8.00;;;;;;;13.48;77.39;64370.69;5051943;28;20214;-60
2023/04/30 06:31:19;;;;;;;11.65;7.25;;;;;;;13.46;76.75;64367.94;5052052;28;20190;-57
2023/04/30 06:33:44;;;;;;;10.52;7.20;;;;;;;13.54;77.15;64373.63;5051746;28;20209;-58
2023/04/30 06:36:10;;;;;;;15.00;6.65;;;;;;;13.55;76.82;64379.81;5051921;28;20189;-57
2023/04/30 06:38:35;;;;;;;9.05;7.32;;;;;;;13.63;76.11;64383.53;5052150;28;20294;-57
2023/04/30 06:41:00;;;;;;;12.07;6.60;;;;;;;13.69;78.48;64392.66;5051867;28;20231;-61
2023/04/30 06:43:26;;;;;;;13.68;6.82;;;;;;;13.54;77.54;64374.19;5051752;28;20225;-64
2023/04/30 06:45:52;;;;;;;13.35;7.80;;;;;;;13.57;76.43;64382.00;5051607;28;20243;-61
2023/04/30 06:48:17;;;;;;;11.13;7.00;;;;;;;13.45;77.85;64367.38;5051608;28;20233;-61
2023/04/30 06:50:43;;;;;;;11.52;7.85;;;;;;;13.29;77.96;64349.81;5051788;28;20261;-59
2023/04/30 06:53:12;;;;;;;13.45;8.43;;;;;;;13.44;76.16;64368.81;5017294;28;20229;-58
2023/04/30 06:55:38;;;;;;;12.13;7.07;;;;;;;13.57;77.07;64376.94;5051732;28;20185;-60
2023/04/30 06:58:07;;;;;;;11.23;7.72;;;;;;;13.71;75.87;64392.31;5051296;28;20290;-61
2023/04/30 07:00:33;;;;;;;12.80;8.43;;;;;;;13.73;76.31;64397.03;5051518;28;20181;-61
2023/04/30 07:03:03;;;;;;;14.35;8.85;;;;;;;13.50;75.57;64372.34;5051227;28;20271;-60
2023/04/30 07:05:30;;;;;;;11.73;9.15;;;;;;;13.19;77.24;64343.38;5051360;28;20190;-61
2023/04/30 07:07:56;;;;;;;15.23;8.50;;;;;;;13.21;77.19;64343.03;5051335;28;20193;-60
2023/04/30 07:10:22;;;;;;;15.00;9.30;;;;;;;13.11;76.88;64330.06;5051289;28;20194;-59
2023/04/30 07:12:48;;;;;;;18.90;9.90;;;;;;;12.96;77.68;64313.59;5051181;28;20277;-61
2023/04/30 07:15:13;;;;;;;16.77;9.95;;;;;;;13.18;78.23;64339.75;5051187;28;20189;-58
2023/04/30 07:17:40;;;;;;;16.27;10.15;;;;;;;13.43;78.15;64367.72;5051016;28;20232;-60
2023/04/30 07:20:07;;;;;;;12.52;9.52;;;;;;;13.51;77.01;64375.97;5050970;28;20190;-58
2023/04/30 07:22:33;;;;;;;15.18;10.10;;;;;;;13.71;76.66;64394.84;5051224;28;20304;-60
2023/04/30 07:24:59;;;;;;;21.10;11.65;;;;;;;13.73;76.18;64397.03;5051139;28;20687;-59
2023/04/30 07:27:25;;;;;;;15.55;9.30;;;;;;;13.64;78.12;64387.16;5051227;28;20193;-60
2023/04/30 07:29:51;;;;;;;16.33;10.70;;;;;;;13.93;76.62;64422.09;5051027;28;20233;-60
2023/04/30 07:32:16;;;;;;;14.20;9.80;;;;;;;14.03;76.42;64427.44;5033092;28;20255;-59
2023/04/30 07:34:42;;;;;;;13.88;10.05;;;;;;;14.09;76.42;64436.56;5050890;28;20290;-58
2023/04/30 07:37:10;;;;;;;15.68;10.07;;;;;;;14.21;75.37;64450.31;5050840;28;20204;-61
2023/04/30 07:39:36;;;;;;;13.35;9.13;;;;;;;14.36;75.63;64466.25;5050893;28;20228;-63
2023/04/30 07:42:03;;;;;;;16.08;9.90;;;;;;;14.48;74.86;64476.91;5050808;28;20182;-60
2023/04/30 07:44:29;;;;;;;15.27;9.77;;;;;;;14.54;73.76;64482.94;5050536;28;20233;-60
2023/04/30 07:46:54;;;;;;;20.45;10.68;;;;;;;14.46;74.63;64474.72;5050717;28;20193;-59
2023/04/30 07:49:20;;;;;;;17.83;9.85;;;;;;;14.54;73.32;64488.03;5054225;28;20693;-61
2023/04/30 07:51:46;;;;;;;16.45;10.52;;;;;;;14.51;73.35;64482.72;5057607;28;20188;-60
2023/04/30 07:54:11;;;;;;;15.27;8.88;;;;;;;14.59;73.19;64490.97;5057498;28;20271;-58
2023/04/30 07:56:37;;;;;;;16.02;9.93;;;;;;;14.70;72.90;64503.63;5057350;28;20478;-58
2023/04/30 07:59:03;;;;;;;13.93;8.13;;;;;;;14.49;69.29;64480.53;5057509;28;20212;-64
2023/04/30 08:01:28;;;;;;;16.77;8.52;;;;;;;14.22;71.26;64450.84;5039717;28;20189;-61
2023/04/30 08:03:53;;;;;;;12.40;7.13;;;;;;;14.33;69.61;64462.97;5057075;28;20562;-59
2023/04/30 08:06:19;;;;;;;14.07;8.40;;;;;;;14.34;71.23;64463.50;5039278;28;20703;-61
2023/04/30 08:08:44;;;;;;;14.10;7.82;;;;;;;14.60;71.44;64490.09;5056983;28;20224;-58
2023/04/30 08:11:10;;;;;;;12.25;8.23;;;;;;;14.89;71.87;64523.94;5057357;28;20189;-63
2023/04/30 08:13:36;;;;;;;11.18;7.47;;;;;;;15.01;71.25;64537.69;5057139;28;20300;-61
2023/04/30 08:16:01;;;;;;;12.23;6.13;;;;;;;15.07;68.13;64541.75;5056846;28;20630;-58
2023/04/30 08:18:28;;;;;;;10.10;6.35;;;;;;;15.22;67.22;64557.13;5056988;28;20278;-58
2023/04/30 08:20:53;;;;;;;15.18;6.72;;;;;;;15.25;67.24;64560.44;5056416;28;20205;-59
2023/04/30 08:23:18;;;;;;;10.48;5.63;;;;;;;15.38;65.67;64577.28;5038535;28;20300;-58
2023/04/30 08:25:44;;;;;;;10.25;4.85;;;;;;;15.34;64.22;64573.44;5057091;28;20193;-59
2023/04/30 08:28:09;;;;;;;7.63;4.50;;;;;;;15.43;64.29;64580.25;5038913;28;20216;-58
2023/04/30 08:30:35;;;;;;;12.48;6.80;;;;;;;15.50;64.56;64590.50;5057083;28;20241;-57
2023/04/30 08:33:01;;;;;;;5.72;4.13;;;;;;;15.39;63.78;64578.91;5056943;28;20547;-57
2023/04/30 08:35:28;;;;;;;9.38;4.55;;;;;;;15.11;64.21;64548.13;5038764;28;20733;-58
2023/04/30 08:37:54;;;;;;;5.13;3.90;;;;;;;15.02;64.52;64536.25;5056954;28;20284;-58
2023/04/30 08:40:20;;;;;;;7.43;4.72;;;;;;;15.07;64.82;64543.72;5056830;28;20212;-57
2023/04/30 08:42:52;;;;;;;8.75;3.53;;;;;;;14.91;64.01;64526.69;5056383;28;20221;-58
2023/04/30 08:45:18;;;;;;;6.07;3.60;;;;;;;14.90;65.49;64523.06;5056592;28;20268;-57
2023/04/30 08:47:44;;;;;;;5.05;3.63;;;;;;;14.87;65.88;64521.75;5056524;28;20196;-57
2023/04/30 08:50:10;;;;;;;8.27;3.88;;;;;;;14.93;65.31;64526.34;5038666;28;20193;-56
2023/04/30 08:52:36;;;;;;;6.25;3.17;;;;;;;14.90;65.15;64525.06;5038947;28;20185;-61
2023/04/30 08:55:07;;;;;;;6.90;4.32;;;;;;;14.90;65.19;64525.06;5056637;28;20260;-62
2023/04/30 08:57:32;;;;;;;7.88;3.95;;;;;;;15.05;65.30;64539.00;5056574;28;20194;-61
2023/04/30 08:59:59;;;;;;;6.85;3.85;;;;;;;15.27;63.38;64568.25;5055287;28;20725;-60
2023/04/30 09:02:25;;;;;;;4.10;3.40;;;;;;;15.19;64.00;64556.91;5052506;28;20234;-61
2023/04/30 09:04:50;;;;;;;8.18;3.60;;;;;;;15.07;62.80;64544.28;5053323;28;20212;-58
2023/04/30 09:07:18;;;;;;;7.13;3.67;;;;;;;15.29;62.65;64569.91;5053168;28;20272;-61
2023/04/30 09:09:43;;;;;;;10.10;3.55;;;;;;;15.53;61.79;64593.81;5053074;28;20217;-61
2023/04/30 09:12:14;;;;;;;5.55;4.00;;;;;;;15.93;61.23;64635.25;5035427;28;20194;-58
2023/04/30 09:14:40;;;;;;;4.43;3.33;;;;;;;16.22;58.18;64667.16;5034921;28;20699;-58
2023/04/30 09:17:10;;;;;;;9.32;3.47;;;;;;;16.31;58.01;64677.09;5053242;28;20174;-57
2023/04/30 09:19:36;;;;;;;4.68;3.30;;;;;;;16.57;57.37;64703.19;5053571;28;20209;-58
2023/04/30 09:22:34;;;;;;;5.70;3.65;;;;;;;16.85;57.27;64736.00;5053211;28;20185;-59
2023/04/30 09:25:00;;;;;;;4.32;3.28;;;;;;;16.90;55.84;64744.06;5008608;28;20233;-62
2023/04/30 09:27:25;;;;;;;3.10;2.67;;;;;;;16.75;54.46;64725.53;5052057;28;20647;-61
2023/04/30 09:29:51;;;;;;;6.78;3.90;;;;;;;17.09;54.17;64764.44;5052727;28;20217;-58
2023/04/30 09:32:17;;;;;;;4.47;3.47;;;;;;;17.20;52.45;64774.56;5052945;28;20177;-60
2023/04/30 09:34:42;;;;;;;5.63;3.70;;;;;;;17.31;52.61;64786.13;5052588;28;20220;-62
2023/04/30 09:37:09;;;;;;;5.13;3.42;;;;;;;17.46;52.20;64803.22;5034845;28;20259;-59
2023/04/30 09:40:00;;;;;;;3.85;3.30;;;;;;;17.02;52.25;64754.72;5052879;28;20232;-60
2023/04/30 09:42:26;;;;;;;5.90;3.88;;;;;;;17.29;52.05;64784.47;5052380;28;20197;-60
2023/04/30 09:44:52;;;;;;;5.93;3.92;;;;;;;17.25;53.72;64779.53;5052484;28;20553;-60
2023/04/30 09:47:19;;;;;;;9.73;5.40;;;;;;;17.42;52.48;64798.81;5052411;28;20188;-61
2023/04/30 09:49:52;;;;;;;6.40;5.32;;;;;;;17.57;51.39;64814.81;5052499;28;20205;-58
2023/04/30 09:52:18;;;;;;;5.75;3.55;;;;;;;17.47;52.00;64806.84;5052412;28;20181;-57
2023/04/30 09:54:44;;;;;;;3.90;3.10;;;;;;;17.77;52.54;64836.28;5052448;28;20255;-58
2023/04/30 09:57:21;;;;;;;3.53;3.20;;;;;;;18.11;54.24;64876.88;5052120;28;20227;-57
2023/04/30 09:59:48;;;;;;;3.85;3.40;;;;;;;18.01;51.90;64865.84;5052559;28;20627;-61
2023/04/30 10:02:16;;;;;;;5.68;4.20;;;;;;;17.95;52.69;64856.13;5052158;28;20280;-61
2023/04/30 10:04:43;;;;;;;4.10;3.25;;;;;;;17.77;53.00;64833.75;5052580;28;20236;-61
2023/04/30 10:07:20;;;;;;;4.82;3.83;;;;;;;17.84;53.51;64844.00;5052189;28;20197;-61
2023/04/30 10:09:58;;;;;;;5.30;3.90;;;;;;;17.80;52.44;64842.69;5052143;28;20721;-58
2023/04/30 10:12:31;;;;;;;5.53;3.47;;;;;;;17.88;52.40;64851.50;5051764;28;20274;-58
2023/04/30 10:15:10;;;;;;;4.93;2.55;;;;;;;18.26;50.21;64890.84;5052205;28;20221;-60
2023/04/30 10:17:42;;;;;;;4.88;3.22;;;;;;;18.64;49.45;64931.69;5052321;28;20188;-60
2023/04/30 10:20:09;;;;;;;5.57;3.00;;;;;;;19.18;48.75;64988.72;5052353;28;20174;-58
2023/04/30 10:22:36;;;;;;;4.85;3.00;;;;;;;19.74;47.95;65050.56;5051958;28;20213;-56
2023/04/30 10:25:02;;;;;;;4.80;3.15;;;;;;;19.46;47.57;65019.66;5052107;28;20270;-60
2023/04/30 10:27:29;;;;;;;4.10;2.75;;;;;;;18.99;48.73;64973.41;5052046;28;20196;-61
2023/04/30 10:29:56;;;;;;;3.33;3.03;;;;;;;18.49;48.03;64915.16;5052083;28;20206;-62
2023/04/30 10:32:22;;;;;;;6.40;3.50;;;;;;;18.15;49.76;64878.75;5051959;28;20178;-62
2023/04/30 10:35:13;;;;;;;3.55;2.53;;;;;;;17.70;50.91;64829.13;5034037;28;20213;-64
2023/04/30 10:37:45;;;;;;;3.22;2.55;;;;;;;17.34;52.96;64791.97;5051870;28;20559;-61
2023/04/30 10:40:11;;;;;;;4.65;3.00;;;;;;;16.87;56.15;64740.75;5051731;28;20189;-60
2023/04/30 10:42:37;;;;;;;7.78;3.08;;;;;;;16.57;57.64;64705.72;5051510;28;20189;-59
2023/04/30 10:45:03;;;;;;;5.35;3.28;;;;;;;15.48;63.71;64588.28;5051664;28;20221;-56
2023/04/30 10:47:31;;;;;;;3.70;3.40;;;;;;;15.05;68.98;64539.00;5051484;28;20216;-57
2023/04/30 10:50:04;;;;;;;4.85;3.53;;;;;;;14.78;74.04;64512.41;5051503;28;20206;-60
2023/04/30 10:52:29;;;;;;;4.50;3.55;;;;;;;14.65;76.61;64500.09;5051530;28;20182;-58
2023/04/30 10:54:55;;;;;;;7.63;3.95;;;;;;;14.79;80.19;64512.94;5051458;28;20645;-57
2023/04/30 10:57:21;;;;;;;6.63;4.57;;;;;;;15.35;77.40;64573.97;5051400;28;20224;-58
2023/04/30 11:00:11;;;;;;;4.50;3.65;;;;;;;16.03;73.33;64646.25;5051421;28;20278;-58
2023/04/30 11:02:42;;;;;;;6.15;4.32;;;;;;;16.86;76.12;64737.13;5050696;28;20667;-58
2023/04/30 11:05:12;;;;;;;3.67;3.35;;;;;;;17.66;68.22;64824.72;5051581;28;20234;-57
2023/04/30 11:07:58;;;;;;;2.60;2.40;;;;;;;17.94;59.47;64855.56;5051263;28;20182;-58
2023/04/30 11:10:26;;;;;;;3.47;3.17;;;;;;;17.90;61.73;64848.63;5051135;28;20193;-61
2023/04/30 11:12:53;;;;;;;3.75;2.92;;;;;;;17.84;62.67;64844.56;5051508;28;20292;-61
2023/04/30 11:15:26;;;;;;;2.63;2.42;;;;;;;17.53;61.94;64810.41;5051266;28;20182;-58
2023/04/30 11:17:56;;;;;;;3.53;2.72;;;;;;;17.87;59.96;64847.88;5051253;28;20193;-58
2023/04/30 11:20:24;;;;;;;2.75;2.55;;;;;;;18.76;59.96;64944.94;5051236;28;20189;-59
2023/04/30 11:23:12;;;;;;;2.90;2.58;;;;;;;18.84;55.75;64956.31;5050787;28;20220;-58
2023/04/30 11:25:44;;;;;;;4.20;3.60;;;;;;;19.52;72.13;65028.84;5050963;28;20227;-58
2023/04/30 11:28:18;;;;;;;3.22;2.92;;;;;;;20.02;64.41;65084.06;5051308;28;20300;-60
2023/04/30 11:30:55;;;;;;;3.08;2.85;;;;;;;19.77;60.18;65056.44;5051242;28;20177;-63
2023/04/30 11:33:22;;;;;;;3.45;2.97;;;;;;;20.04;60.60;65086.25;5050893;28;20217;-59